createdAt,value
2022-08-03T00:00:57.942Z,28
2022-08-03T00:02:00.612Z,28
2022-08-03T00:03:09.329Z,29
2022-08-03T00:04:11.754Z,28
2022-08-03T00:05:13.874Z,30
2022-08-03T00:06:15.424Z,29
2022-08-03T00:07:17.591Z,29
2022-08-03T00:08:20.061Z,29
2022-08-03T00:09:21.297Z,30
2022-08-03T00:10:23.634Z,30
2022-08-03T00:11:24.924Z,30
2022-08-03T00:12:26.481Z,28
2022-08-03T00:13:28.795Z,28
2022-08-03T00:14:30.314Z,27
2022-08-03T00:15:32.134Z,28
2022-08-03T00:16:33.425Z,27
2022-08-03T00:17:54.139Z,27
2022-08-03T00:18:55.951Z,27
2022-08-03T00:19:57.437Z,25
2022-08-03T00:20:58.682Z,26
2022-08-03T00:22:00.246Z,26
2022-08-03T00:23:02.347Z,27
2022-08-03T00:24:07.092Z,28
2022-08-03T00:25:08.839Z,28
2022-08-03T00:26:10.153Z,27
2022-08-03T00:27:16.734Z,27
2022-08-03T00:28:18.892Z,27
2022-08-03T00:29:27.986Z,27
2022-08-03T00:30:31.131Z,28
2022-08-03T00:31:59.286Z,28
2022-08-03T00:33:03.323Z,29
2022-08-03T00:34:12.746Z,29
2022-08-03T00:35:46.544Z,29
2022-08-03T00:36:52.442Z,29
2022-08-03T00:37:54.255Z,28
2022-08-03T00:38:56.110Z,28
2022-08-03T00:40:00.067Z,28
2022-08-03T00:41:07.274Z,27
2022-08-03T00:42:09.378Z,27
2022-08-03T00:43:10.910Z,27
2022-08-03T00:44:12.193Z,28
2022-08-03T00:45:13.436Z,28
2022-08-03T00:46:21.859Z,28
2022-08-03T00:47:23.643Z,29
2022-08-03T00:48:34.186Z,28
2022-08-03T00:49:36.401Z,28
2022-08-03T00:50:38.985Z,28
2022-08-03T00:51:40.255Z,28
2022-08-03T00:52:41.303Z,29
2022-08-03T00:53:42.604Z,29
2022-08-03T00:54:43.924Z,28
2022-08-03T00:55:46.009Z,27
2022-08-03T00:57:00.731Z,27
2022-08-03T00:58:02.552Z,27
2022-08-03T00:59:04.322Z,28
2022-08-03T01:00:05.373Z,27
2022-08-03T01:01:08.137Z,27
2022-08-03T01:02:09.906Z,27
2022-08-03T01:03:11.240Z,26
2022-08-03T01:04:12.228Z,26
2022-08-03T01:05:13.776Z,26
2022-08-03T01:06:15.108Z,26
2022-08-03T01:07:16.606Z,26
2022-08-03T01:08:17.614Z,26
2022-08-03T01:09:19.181Z,27
2022-08-03T01:10:20.155Z,27
2022-08-03T01:11:21.752Z,26
2022-08-03T01:12:23.320Z,27
2022-08-03T01:14:18.513Z,27
2022-08-03T01:15:27.809Z,26
2022-08-03T01:16:37.289Z,25
2022-08-03T01:17:38.640Z,24
2022-08-03T01:18:41.996Z,24
2022-08-03T01:19:43.560Z,24
2022-08-03T01:20:45.311Z,24
2022-08-03T01:21:52.647Z,23
2022-08-03T01:22:55.528Z,24
2022-08-03T01:23:57.580Z,24
2022-08-03T01:24:59.627Z,25
2022-08-03T01:26:01.536Z,26
2022-08-03T01:27:03.574Z,27
2022-08-03T01:28:04.609Z,28
2022-08-03T01:29:06.163Z,28
2022-08-03T01:30:07.152Z,28
2022-08-03T01:31:08.477Z,27
2022-08-03T01:33:01.746Z,26
2022-08-03T01:34:12.410Z,26
2022-08-03T01:35:16.577Z,26
2022-08-03T01:36:21.103Z,27
2022-08-03T01:37:22.911Z,27
2022-08-03T01:38:24.475Z,28
2022-08-03T01:39:26.804Z,27
2022-08-03T01:40:28.097Z,27
2022-08-03T01:41:30.260Z,27
2022-08-03T01:42:32.097Z,26
2022-08-03T01:44:30.740Z,25
2022-08-03T01:45:34.683Z,25
2022-08-03T01:46:36.547Z,25
2022-08-03T01:47:38.910Z,26
2022-08-03T01:48:41.127Z,27
2022-08-03T01:49:42.809Z,28
2022-08-03T01:50:44.852Z,27
2022-08-03T01:52:05.441Z,27
2022-08-03T01:53:06.906Z,26
2022-08-03T01:54:07.956Z,25
2022-08-03T01:55:09.807Z,25
2022-08-03T01:56:11.635Z,25
2022-08-03T01:57:13.177Z,25
2022-08-03T01:58:14.979Z,26
2022-08-03T01:59:16.780Z,25
2022-08-03T02:00:20.093Z,25
2022-08-03T02:01:22.090Z,25
2022-08-03T02:02:34.783Z,24
2022-08-03T02:04:01.307Z,23
2022-08-03T02:05:03.488Z,23
2022-08-03T02:07:03.013Z,23
2022-08-03T02:08:05.446Z,24
2022-08-03T02:09:09.129Z,25
2022-08-03T02:10:10.406Z,25
2022-08-03T02:11:11.700Z,25
2022-08-03T02:12:13.694Z,24
2022-08-03T02:13:17.616Z,24
2022-08-03T02:14:19.420Z,25
2022-08-03T02:15:21.480Z,25
2022-08-03T02:16:24.141Z,26
2022-08-03T02:17:40.733Z,25
2022-08-03T02:18:43.299Z,24
2022-08-03T02:19:48.760Z,23
2022-08-03T02:20:50.809Z,22
2022-08-03T02:22:01.461Z,23
2022-08-03T02:23:04.517Z,23
2022-08-03T02:24:06.297Z,23
2022-08-03T02:25:07.840Z,24
2022-08-03T02:26:09.618Z,25
2022-08-03T02:27:10.647Z,25
2022-08-03T02:28:14.676Z,25
2022-08-03T02:29:16.122Z,24
2022-08-03T02:30:17.713Z,23
2022-08-03T02:31:18.967Z,23
2022-08-03T02:32:20.582Z,22
2022-08-03T02:33:22.347Z,21
2022-08-03T02:34:24.983Z,21
2022-08-03T02:35:27.101Z,22
2022-08-03T02:36:31.944Z,23
2022-08-03T02:37:33.785Z,23
2022-08-03T02:38:35.296Z,23
2022-08-03T02:39:37.141Z,22
2022-08-03T02:40:38.728Z,21
2022-08-03T02:41:40.783Z,21
2022-08-03T02:42:43.127Z,22
2022-08-03T02:44:07.580Z,23
2022-08-03T02:45:11.129Z,23
2022-08-03T02:46:14.910Z,23
2022-08-03T02:47:15.933Z,22
2022-08-03T02:48:17.477Z,21
2022-08-03T02:49:51.849Z,21
2022-08-03T02:50:54.041Z,21
2022-08-03T02:51:55.591Z,21
2022-08-03T02:52:56.895Z,21
2022-08-03T02:53:58.749Z,23
2022-08-03T02:55:00.005Z,23
2022-08-03T02:56:01.518Z,23
2022-08-03T02:57:03.368Z,25
2022-08-03T02:58:05.448Z,23
2022-08-03T02:59:07.365Z,23
2022-08-03T03:00:08.351Z,24
2022-08-03T03:01:10.104Z,22
2022-08-03T03:02:11.643Z,23
2022-08-03T03:03:12.954Z,24
2022-08-03T03:04:17.187Z,23
2022-08-03T03:05:57.366Z,24
2022-08-03T03:07:08.545Z,24
2022-08-03T03:08:20.991Z,23
2022-08-03T03:09:43.398Z,24
2022-08-03T03:10:44.887Z,24
2022-08-03T03:11:46.741Z,24
2022-08-03T03:12:48.054Z,25
2022-08-03T03:13:50.015Z,25
2022-08-03T03:14:51.537Z,24
2022-08-03T03:15:52.642Z,24
2022-08-03T03:16:58.269Z,23
2022-08-03T03:17:59.914Z,22
2022-08-03T03:19:01.964Z,23
2022-08-03T03:20:03.522Z,23
2022-08-03T03:21:05.025Z,23
2022-08-03T03:22:06.608Z,25
2022-08-03T03:23:08.150Z,24
2022-08-03T03:24:10.218Z,24
2022-08-03T03:25:12.300Z,24
2022-08-03T03:26:14.124Z,23
2022-08-03T03:27:17.089Z,24
2022-08-03T03:28:21.728Z,26
2022-08-03T03:29:26.026Z,26
2022-08-03T03:30:27.311Z,26
2022-08-03T03:31:28.619Z,26
2022-08-03T03:32:32.451Z,25
2022-08-03T03:33:33.952Z,25
2022-08-03T03:34:35.485Z,25
2022-08-03T03:35:39.822Z,24
2022-08-03T03:36:45.306Z,23
2022-08-03T03:37:47.148Z,22
2022-08-03T03:38:49.298Z,22
2022-08-03T03:39:55.109Z,22
2022-08-03T03:40:56.368Z,22
2022-08-03T03:41:58.158Z,22
2022-08-03T03:42:59.440Z,23
2022-08-03T03:44:02.113Z,24
2022-08-03T03:45:03.710Z,23
2022-08-03T03:46:05.490Z,23
2022-08-03T03:47:07.622Z,23
2022-08-03T03:48:08.880Z,23
2022-08-03T03:49:10.496Z,23
2022-08-03T03:50:12.946Z,25
2022-08-03T03:51:14.477Z,25
2022-08-03T03:52:16.860Z,26
2022-08-03T03:53:19.261Z,28
2022-08-03T03:54:20.879Z,27
2022-08-03T03:55:26.088Z,26
2022-08-03T03:56:27.626Z,25
2022-08-03T03:57:29.937Z,24
2022-08-03T03:58:31.715Z,23
2022-08-03T03:59:36.505Z,23
2022-08-03T04:00:38.536Z,24
2022-08-03T04:01:41.395Z,24
2022-08-03T04:02:42.946Z,25
2022-08-03T04:03:44.739Z,25
2022-08-03T04:04:46.589Z,24
2022-08-03T04:05:48.942Z,24
2022-08-03T04:06:50.477Z,25
2022-08-03T04:07:51.993Z,24
2022-08-03T04:08:53.556Z,25
2022-08-03T04:09:54.872Z,25
2022-08-03T04:11:15.908Z,26
2022-08-03T04:12:17.875Z,27
2022-08-03T04:13:19.142Z,25
2022-08-03T04:14:21.209Z,26
2022-08-03T04:15:23.185Z,24
2022-08-03T04:16:25.013Z,23
2022-08-03T04:17:26.530Z,24
2022-08-03T04:18:30.346Z,23
2022-08-03T04:19:32.176Z,23
2022-08-03T04:20:34.566Z,23
2022-08-03T04:21:36.358Z,24
2022-08-03T04:22:37.878Z,25
2022-08-03T04:23:39.144Z,26
2022-08-03T04:24:40.998Z,26
2022-08-03T04:25:42.691Z,26
2022-08-03T04:26:43.716Z,24
2022-08-03T04:28:30.191Z,24
2022-08-03T04:29:34.063Z,23
2022-08-03T04:30:39.155Z,23
2022-08-03T04:31:40.744Z,23
2022-08-03T04:32:46.120Z,23
2022-08-03T04:33:51.032Z,24
2022-08-03T04:34:52.310Z,23
2022-08-03T04:36:03.546Z,22
2022-08-03T04:37:05.344Z,22
2022-08-03T04:38:08.755Z,22
2022-08-03T04:39:10.349Z,22
2022-08-03T04:40:11.327Z,22
2022-08-03T04:41:12.323Z,22
2022-08-03T04:42:13.344Z,24
2022-08-03T04:43:15.043Z,28
2022-08-03T04:44:17.703Z,32
2022-08-03T04:45:19.195Z,36
2022-08-03T04:46:20.747Z,40
2022-08-03T04:47:22.046Z,41
2022-08-03T04:48:24.189Z,40
2022-08-03T04:49:25.679Z,38
2022-08-03T04:50:27.419Z,34
2022-08-03T04:51:28.705Z,30
2022-08-03T04:52:30.533Z,28
2022-08-03T04:53:32.314Z,28
2022-08-03T04:54:34.130Z,29
2022-08-03T04:55:35.705Z,31
2022-08-03T04:56:37.190Z,33
2022-08-03T04:57:38.997Z,35
2022-08-03T04:58:41.125Z,33
2022-08-03T04:59:43.466Z,32
2022-08-03T05:00:44.768Z,31
2022-08-03T05:01:46.553Z,28
2022-08-03T05:02:48.239Z,27
2022-08-03T05:03:49.790Z,27
2022-08-03T05:04:51.335Z,26
2022-08-03T05:05:53.118Z,27
2022-08-03T05:07:21.568Z,27
2022-08-03T05:08:48.860Z,27
2022-08-03T05:10:03.500Z,27
2022-08-03T05:11:17.707Z,26
2022-08-03T05:12:20.332Z,26
2022-08-03T05:13:22.751Z,25
2022-08-03T05:14:28.683Z,24
2022-08-03T05:15:30.528Z,25
2022-08-03T05:16:32.357Z,25
2022-08-03T05:17:34.418Z,26
2022-08-03T05:18:35.739Z,25
2022-08-03T05:19:37.829Z,24
2022-08-03T05:20:40.003Z,23
2022-08-03T05:21:53.101Z,24
2022-08-03T05:22:55.436Z,26
2022-08-03T05:23:56.960Z,27
2022-08-03T05:24:58.823Z,26
2022-08-03T05:26:00.379Z,25
2022-08-03T05:27:01.916Z,24
2022-08-03T05:28:03.752Z,26
2022-08-03T05:29:05.052Z,26
2022-08-03T05:30:34.616Z,27
2022-08-03T05:31:36.126Z,26
2022-08-03T05:32:37.130Z,25
2022-08-03T05:33:38.700Z,24
2022-08-03T05:34:40.776Z,23
2022-08-03T05:36:04.057Z,23
2022-08-03T05:37:06.052Z,22
2022-08-03T05:38:09.572Z,21
2022-08-03T05:39:12.511Z,21
2022-08-03T05:40:14.121Z,20
2022-08-03T05:41:32.928Z,19
2022-08-03T05:42:39.058Z,20
2022-08-03T05:43:41.130Z,20
2022-08-03T05:44:43.289Z,21
2022-08-03T05:45:45.399Z,21
2022-08-03T05:47:14.430Z,21
2022-08-03T05:48:16.415Z,21
2022-08-03T05:49:18.047Z,20
2022-08-03T05:50:20.467Z,19
2022-08-03T05:51:21.793Z,18
2022-08-03T05:52:24.532Z,17
2022-08-03T05:53:27.952Z,17
2022-08-03T05:54:57.779Z,16
2022-08-03T05:56:16.147Z,17
2022-08-03T05:57:18.781Z,16
2022-08-03T05:58:30.062Z,16
2022-08-03T05:59:39.062Z,16
2022-08-03T06:01:00.411Z,17
2022-08-03T06:02:02.547Z,18
2022-08-03T06:03:04.811Z,18
2022-08-03T06:04:09.582Z,19
2022-08-03T06:05:12.488Z,20
2022-08-03T06:06:20.864Z,20
2022-08-03T06:07:23.647Z,20
2022-08-03T06:08:26.609Z,20
2022-08-03T06:10:36.131Z,18
2022-08-03T06:11:41.027Z,18
2022-08-03T06:12:46.803Z,18
2022-08-03T06:13:55.539Z,18
2022-08-03T06:14:58.427Z,20
2022-08-03T06:16:03.641Z,20
2022-08-03T06:17:04.905Z,21
2022-08-03T06:18:07.012Z,22
2022-08-03T06:19:08.592Z,21
2022-08-03T06:20:10.948Z,21
2022-08-03T06:21:16.471Z,19
2022-08-03T06:22:19.308Z,19
2022-08-03T06:23:55.462Z,19
2022-08-03T06:24:57.881Z,19
2022-08-03T06:26:17.529Z,20
2022-08-03T06:27:36.485Z,19
2022-08-03T06:28:54.355Z,19
2022-08-03T06:29:56.847Z,18
2022-08-03T06:30:59.061Z,17
2022-08-03T06:32:00.636Z,17
2022-08-03T06:33:02.433Z,18
2022-08-03T06:34:35.838Z,18
2022-08-03T06:35:41.732Z,19
2022-08-03T06:36:46.310Z,19
2022-08-03T06:37:47.930Z,18
2022-08-03T06:38:49.466Z,17
2022-08-03T06:39:51.679Z,17
2022-08-03T06:40:53.230Z,18
2022-08-03T06:41:55.324Z,18
2022-08-03T06:42:56.962Z,18
2022-08-03T06:44:04.560Z,18
2022-08-03T06:45:06.294Z,16
2022-08-03T06:46:07.599Z,18
2022-08-03T06:47:09.175Z,18
2022-08-03T06:48:10.742Z,19
2022-08-03T06:49:12.194Z,21
2022-08-03T06:50:20.718Z,20
2022-08-03T06:52:07.080Z,20
2022-08-03T06:53:18.311Z,20
2022-08-03T06:54:24.950Z,20
2022-08-03T06:55:29.893Z,20
2022-08-03T06:56:49.076Z,20
2022-08-03T06:57:50.647Z,20
2022-08-03T06:59:04.791Z,21
2022-08-03T07:00:12.864Z,21
2022-08-03T07:01:19.088Z,20
2022-08-03T07:02:21.281Z,19
2022-08-03T07:03:23.291Z,18
2022-08-03T07:04:24.847Z,16
2022-08-03T07:05:28.710Z,17
2022-08-03T07:06:30.851Z,17
2022-08-03T07:07:32.656Z,18
2022-08-03T07:08:34.872Z,19
2022-08-03T07:09:36.963Z,18
2022-08-03T07:10:39.031Z,20
2022-08-03T07:11:40.934Z,20
2022-08-03T07:12:56.961Z,20
2022-08-03T07:13:59.158Z,22
2022-08-03T07:15:03.403Z,20
2022-08-03T07:16:05.544Z,19
2022-08-03T07:17:12.182Z,19
2022-08-03T07:18:13.565Z,18
2022-08-03T07:19:14.552Z,18
2022-08-03T07:20:15.893Z,19
2022-08-03T07:21:16.959Z,18
2022-08-03T07:22:18.744Z,18
2022-08-03T07:23:20.991Z,20
2022-08-03T07:24:22.879Z,19
2022-08-03T07:25:24.532Z,20
2022-08-03T07:26:26.372Z,21
2022-08-03T07:27:28.002Z,19
2022-08-03T07:28:30.325Z,20
2022-08-03T07:29:34.909Z,19
2022-08-03T07:30:35.909Z,18
2022-08-03T07:31:37.853Z,19
2022-08-03T07:32:51.319Z,18
2022-08-03T07:33:52.670Z,19
2022-08-03T07:35:01.022Z,18
2022-08-03T07:36:26.450Z,18
2022-08-03T07:37:28.006Z,20
2022-08-03T07:38:29.841Z,20
2022-08-03T07:39:32.154Z,22
2022-08-03T07:40:34.232Z,23
2022-08-03T07:41:35.506Z,22
2022-08-03T07:42:36.812Z,23
2022-08-03T07:43:38.337Z,21
2022-08-03T07:44:39.604Z,20
2022-08-03T07:45:41.430Z,18
2022-08-03T07:46:42.800Z,16
2022-08-03T07:47:54.523Z,16
2022-08-03T07:48:56.642Z,16
2022-08-03T07:49:58.846Z,17
2022-08-03T07:51:00.124Z,17
2022-08-03T07:52:01.421Z,17
2022-08-03T07:53:02.699Z,17
2022-08-03T07:54:04.918Z,16
2022-08-03T07:55:06.509Z,16
2022-08-03T07:56:12.036Z,16
2022-08-03T07:57:13.995Z,17
2022-08-03T07:58:18.162Z,18
2022-08-03T07:59:25.820Z,18
2022-08-03T08:00:27.057Z,19
2022-08-03T08:01:28.432Z,18
2022-08-03T08:02:31.160Z,19
2022-08-03T08:03:53.675Z,20
2022-08-03T08:04:55.722Z,19
2022-08-03T08:05:57.298Z,20
2022-08-03T08:06:59.638Z,18
2022-08-03T08:08:01.488Z,18
2022-08-03T08:09:03.586Z,17
2022-08-03T08:10:04.601Z,16
2022-08-03T08:11:06.730Z,16
2022-08-03T08:12:15.925Z,14
2022-08-03T08:13:19.805Z,15
2022-08-03T08:14:20.881Z,16
2022-08-03T08:15:22.228Z,16
2022-08-03T08:16:23.234Z,16
2022-08-03T08:17:24.493Z,16
2022-08-03T08:18:25.512Z,17
2022-08-03T08:19:31.109Z,17
2022-08-03T08:20:53.887Z,17
2022-08-03T08:22:03.087Z,18
2022-08-03T08:23:44.843Z,17
2022-08-03T08:24:59.673Z,17
2022-08-03T08:26:02.596Z,18
2022-08-03T08:27:03.843Z,17
2022-08-03T08:28:33.631Z,17
2022-08-03T08:29:35.461Z,18
2022-08-03T08:31:16.723Z,18
2022-08-03T08:32:19.243Z,18
2022-08-03T08:33:24.099Z,19
2022-08-03T08:35:05.202Z,19
2022-08-03T08:36:08.353Z,18
2022-08-03T08:37:16.893Z,18
2022-08-03T08:38:18.740Z,18
2022-08-03T08:39:20.864Z,16
2022-08-03T08:40:27.712Z,16
2022-08-03T08:41:32.916Z,16
2022-08-03T08:42:34.681Z,16
2022-08-03T08:43:36.760Z,17
2022-08-03T08:44:38.911Z,17
2022-08-03T08:45:40.987Z,17
2022-08-03T08:46:43.844Z,17
2022-08-03T08:47:53.252Z,16
2022-08-03T08:49:09.924Z,17
2022-08-03T08:50:28.325Z,17
2022-08-03T08:52:01.596Z,16
2022-08-03T08:53:04.178Z,15
2022-08-03T08:54:21.582Z,15
2022-08-03T08:55:23.711Z,15
2022-08-03T08:56:25.224Z,17
2022-08-03T08:57:43.595Z,18
2022-08-03T08:58:46.562Z,17
2022-08-03T08:59:51.583Z,16
2022-08-03T09:01:04.019Z,15
2022-08-03T09:02:06.016Z,16
2022-08-03T09:03:07.828Z,16
2022-08-03T09:04:12.572Z,17
2022-08-03T09:05:14.608Z,16
2022-08-03T09:06:16.692Z,16
2022-08-03T09:07:20.923Z,16
2022-08-03T09:08:22.794Z,16
2022-08-03T09:10:13.563Z,15
2022-08-03T09:11:16.399Z,15
2022-08-03T09:12:52.244Z,15
2022-08-03T09:13:53.598Z,14
2022-08-03T09:15:17.358Z,14
2022-08-03T09:16:18.620Z,14
2022-08-03T09:17:21.031Z,15
2022-08-03T09:18:33.227Z,16
2022-08-03T09:19:35.201Z,17
2022-08-03T09:20:37.038Z,16
2022-08-03T09:21:39.110Z,14
2022-08-03T09:22:40.431Z,13
2022-08-03T09:24:02.643Z,13
2022-08-03T09:25:42.121Z,14
2022-08-03T09:26:43.697Z,15
2022-08-03T09:27:45.483Z,15
2022-08-03T09:29:05.880Z,16
2022-08-03T09:30:35.282Z,16
2022-08-03T09:31:37.184Z,15
2022-08-03T09:32:38.680Z,16
2022-08-03T09:33:40.020Z,15
2022-08-03T09:34:41.292Z,15
2022-08-03T09:35:58.655Z,15
2022-08-03T09:37:00.298Z,15
2022-08-03T09:38:14.257Z,15
2022-08-03T09:39:16.615Z,15
2022-08-03T09:40:18.729Z,14
2022-08-03T09:41:20.455Z,13
2022-08-03T09:42:24.385Z,12
2022-08-03T09:43:25.676Z,11
2022-08-03T09:44:27.234Z,11
2022-08-03T09:45:28.895Z,11
2022-08-03T09:46:32.613Z,11
2022-08-03T09:47:33.947Z,12
2022-08-03T09:48:35.705Z,12
2022-08-03T09:49:36.809Z,13
2022-08-03T09:50:58.830Z,13
2022-08-03T09:54:00.537Z,12
2022-08-03T09:55:02.370Z,12
2022-08-03T09:56:37.031Z,11
2022-08-03T09:57:39.811Z,11
2022-08-03T09:58:48.765Z,11
2022-08-03T09:59:50.266Z,11
2022-08-03T10:01:03.081Z,12
2022-08-03T10:02:07.077Z,13
2022-08-03T10:03:08.925Z,14
2022-08-03T10:04:11.962Z,14
2022-08-03T10:05:20.160Z,14
2022-08-03T10:06:22.528Z,14
2022-08-03T10:07:31.237Z,12
2022-08-03T10:08:33.341Z,12
2022-08-03T10:09:35.164Z,13
2022-08-03T10:10:36.459Z,13
2022-08-03T10:11:45.356Z,14
2022-08-03T10:12:49.558Z,14
2022-08-03T10:14:01.786Z,14
2022-08-03T10:15:03.119Z,15
2022-08-03T10:16:26.830Z,16
2022-08-03T10:17:28.241Z,20
2022-08-03T10:18:29.522Z,21
2022-08-03T10:19:30.822Z,22
2022-08-03T10:20:32.916Z,20
2022-08-03T10:21:35.011Z,18
2022-08-03T10:22:37.222Z,18
2022-08-03T10:23:38.520Z,18
2022-08-03T10:24:40.936Z,19
2022-08-03T10:25:42.193Z,19
2022-08-03T10:26:50.433Z,19
2022-08-03T10:27:51.742Z,18
2022-08-03T10:28:53.801Z,17
2022-08-03T10:29:55.080Z,18
2022-08-03T10:30:57.707Z,19
2022-08-03T10:32:00.077Z,20
2022-08-03T10:33:02.433Z,20
2022-08-03T10:35:01.823Z,20
2022-08-03T10:36:23.599Z,20
2022-08-03T10:37:24.929Z,21
2022-08-03T10:38:26.419Z,24
2022-08-03T10:39:28.480Z,25
2022-08-03T10:40:51.002Z,26
2022-08-03T10:42:03.304Z,27
2022-08-03T10:43:18.111Z,26
2022-08-03T10:44:19.936Z,26
2022-08-03T10:45:21.472Z,28
2022-08-03T10:46:23.719Z,29
2022-08-03T10:47:25.199Z,31
2022-08-03T10:48:27.027Z,32
2022-08-03T10:49:35.666Z,31
2022-08-03T10:50:38.062Z,30
2022-08-03T10:51:42.579Z,28
2022-08-03T10:52:49.386Z,26
2022-08-03T10:53:55.867Z,24
2022-08-03T10:55:10.134Z,24
2022-08-03T10:56:21.645Z,25
2022-08-03T10:57:59.207Z,25
2022-08-03T10:59:04.339Z,27
2022-08-03T11:00:12.300Z,26
2022-08-03T11:01:15.381Z,24
2022-08-03T11:02:17.627Z,24
2022-08-03T11:03:20.050Z,25
2022-08-03T11:04:22.400Z,25
2022-08-03T11:05:24.474Z,25
2022-08-03T11:06:37.827Z,25
2022-08-03T11:07:40.565Z,24
2022-08-03T11:08:42.393Z,23
2022-08-03T11:09:44.743Z,25
2022-08-03T11:10:46.292Z,28
2022-08-03T11:11:48.162Z,30
2022-08-03T11:12:55.012Z,30
2022-08-03T11:14:00.268Z,28
2022-08-03T11:15:01.608Z,25
2022-08-03T11:16:09.590Z,27
2022-08-03T11:17:23.105Z,30
2022-08-03T11:18:27.630Z,32
2022-08-03T11:19:29.152Z,31
2022-08-03T11:20:32.620Z,26
2022-08-03T11:21:51.845Z,24
2022-08-03T11:22:53.960Z,24
2022-08-03T11:24:06.719Z,24
2022-08-03T11:25:08.481Z,24
2022-08-03T11:26:57.130Z,22
2022-08-03T11:27:58.384Z,19
2022-08-03T11:28:59.381Z,17
2022-08-03T11:30:00.721Z,16
2022-08-03T11:31:02.294Z,15
2022-08-03T11:32:03.596Z,16
2022-08-03T11:33:05.674Z,15
2022-08-03T11:34:08.285Z,16
2022-08-03T11:35:10.120Z,16
2022-08-03T11:36:12.063Z,15
2022-08-03T11:37:34.004Z,16
2022-08-03T11:38:35.838Z,15
2022-08-03T11:39:37.359Z,15
2022-08-03T11:40:38.610Z,15
2022-08-03T11:41:45.534Z,14
2022-08-03T11:42:47.065Z,14
2022-08-03T11:43:51.784Z,13
2022-08-03T11:44:54.118Z,14
2022-08-03T11:45:55.705Z,13
2022-08-03T11:46:57.760Z,12
2022-08-03T11:48:00.411Z,13
2022-08-03T11:49:09.685Z,13
2022-08-03T11:50:13.167Z,13
2022-08-03T11:51:14.188Z,14
2022-08-03T11:52:15.464Z,14
2022-08-03T11:53:18.122Z,15
2022-08-03T11:54:19.479Z,15
2022-08-03T11:55:20.908Z,15
2022-08-03T11:56:22.989Z,16
2022-08-03T11:59:21.518Z,15
2022-08-03T12:00:26.307Z,15
2022-08-03T12:01:27.469Z,14
2022-08-03T12:02:29.947Z,14
2022-08-03T12:03:34.390Z,14
2022-08-03T12:04:37.521Z,13
2022-08-03T12:05:39.331Z,13
2022-08-03T12:06:47.480Z,13
2022-08-03T12:08:06.792Z,13
2022-08-03T12:09:15.710Z,14
2022-08-03T12:10:21.738Z,13
2022-08-03T12:11:23.526Z,14
2022-08-03T12:12:26.444Z,14
2022-08-03T12:14:51.502Z,14
2022-08-03T12:15:54.785Z,14
2022-08-03T12:16:56.063Z,13
2022-08-03T12:17:58.910Z,13
2022-08-03T12:19:00.587Z,13
2022-08-03T12:20:02.271Z,13
2022-08-03T12:21:03.886Z,13
2022-08-03T12:22:05.469Z,13
2022-08-03T12:23:07.240Z,13
2022-08-03T12:24:09.090Z,13
2022-08-03T12:25:11.722Z,14
2022-08-03T12:26:13.045Z,14
2022-08-03T12:27:22.298Z,13
2022-08-03T12:28:38.264Z,13
2022-08-03T12:29:59.436Z,12
2022-08-03T12:31:01.588Z,13
2022-08-03T12:32:03.508Z,12
2022-08-03T12:33:05.121Z,12
2022-08-03T12:34:06.400Z,12
2022-08-03T12:35:07.412Z,12
2022-08-03T12:36:09.044Z,12
2022-08-03T12:37:28.940Z,13
2022-08-03T12:38:31.528Z,13
2022-08-03T12:40:09.298Z,13
2022-08-03T12:41:27.013Z,13
2022-08-03T12:42:28.842Z,13
2022-08-03T12:43:39.917Z,13
2022-08-03T12:44:41.495Z,12
2022-08-03T12:45:42.486Z,13
2022-08-03T12:46:48.535Z,13
2022-08-03T12:47:50.107Z,12
2022-08-03T12:48:51.163Z,12
2022-08-03T12:49:52.168Z,11
2022-08-03T12:50:54.259Z,10
2022-08-03T12:51:56.059Z,10
2022-08-03T12:52:58.091Z,10
2022-08-03T12:53:59.922Z,11
2022-08-03T12:55:02.280Z,11
2022-08-03T12:56:06.416Z,12
2022-08-03T12:57:08.100Z,13
2022-08-03T12:58:09.446Z,12
2022-08-03T12:59:10.529Z,12
2022-08-03T13:00:29.837Z,11
2022-08-03T13:01:33.643Z,11
2022-08-03T13:03:38.798Z,11
2022-08-03T13:04:54.322Z,11
2022-08-03T13:05:55.839Z,12
2022-08-03T13:07:03.455Z,11
2022-08-03T13:08:15.033Z,11
2022-08-03T13:09:21.715Z,11
2022-08-03T13:10:23.303Z,11
2022-08-03T13:12:02.640Z,11
2022-08-03T13:13:09.139Z,12
2022-08-03T13:14:20.436Z,12
2022-08-03T13:15:24.701Z,12
2022-08-03T13:16:48.058Z,12
2022-08-03T13:17:50.033Z,12
2022-08-03T13:18:51.562Z,11
2022-08-03T13:19:52.564Z,12
2022-08-03T13:20:53.855Z,12
2022-08-03T13:22:08.048Z,12
2022-08-03T13:23:22.126Z,12
2022-08-03T13:24:24.183Z,12
2022-08-03T13:25:25.687Z,12
2022-08-03T13:26:27.233Z,12
2022-08-03T13:28:06.510Z,12
2022-08-03T13:29:17.563Z,12
2022-08-03T13:30:30.867Z,12
2022-08-03T13:31:51.441Z,12
2022-08-03T13:32:53.051Z,11
2022-08-03T13:33:54.044Z,12
2022-08-03T13:34:55.817Z,13
2022-08-03T13:36:00.702Z,13
2022-08-03T13:37:10.504Z,14
2022-08-03T13:38:17.734Z,13
2022-08-03T13:39:33.033Z,12
2022-08-03T13:41:06.853Z,12
2022-08-03T13:42:08.051Z,11
2022-08-03T13:43:09.067Z,12
2022-08-03T13:44:30.246Z,12
2022-08-03T13:45:31.844Z,12
2022-08-03T13:46:33.661Z,12
2022-08-03T13:47:35.506Z,12
2022-08-03T13:48:38.470Z,11
2022-08-03T13:49:39.891Z,11
2022-08-03T13:50:43.433Z,12
2022-08-03T13:51:45.068Z,12
2022-08-03T13:52:46.588Z,12
2022-08-03T13:53:48.686Z,12
2022-08-03T13:54:50.848Z,12
2022-08-03T13:55:52.465Z,12
2022-08-03T13:57:00.655Z,12
2022-08-03T13:59:20.171Z,11
2022-08-03T14:00:29.618Z,11
2022-08-03T14:01:55.925Z,11
2022-08-03T14:03:12.477Z,12
2022-08-03T14:04:22.730Z,18
2022-08-03T14:05:25.105Z,22
2022-08-03T14:06:26.612Z,24
2022-08-03T14:07:31.067Z,26
2022-08-03T14:08:32.593Z,23
2022-08-03T14:09:34.403Z,21
2022-08-03T14:10:36.300Z,21
2022-08-03T14:12:08.891Z,19
2022-08-03T14:13:18.105Z,16
2022-08-03T14:14:30.285Z,15
2022-08-03T14:15:38.622Z,13
2022-08-03T14:16:40.871Z,14
2022-08-03T14:17:50.272Z,14
2022-08-03T14:18:52.909Z,13
2022-08-03T14:19:55.205Z,14
2022-08-03T14:22:07.052Z,13
2022-08-03T14:23:08.140Z,13
2022-08-03T14:24:10.040Z,14
2022-08-03T14:25:14.403Z,14
2022-08-03T14:26:26.393Z,14
2022-08-03T14:27:28.219Z,14
2022-08-03T14:28:30.180Z,13
2022-08-03T14:29:31.469Z,12
2022-08-03T14:30:34.078Z,12
2022-08-03T14:32:13.380Z,13
2022-08-03T14:33:15.692Z,14
2022-08-03T14:34:17.874Z,13
2022-08-03T14:35:19.969Z,13
2022-08-03T14:36:21.222Z,12
2022-08-03T14:37:24.747Z,12
2022-08-03T14:38:26.295Z,12
2022-08-03T14:40:00.854Z,13
2022-08-03T14:41:03.131Z,13
2022-08-03T14:42:04.406Z,13
2022-08-03T14:43:05.680Z,14
2022-08-03T14:44:06.682Z,14
2022-08-03T14:45:20.719Z,14
2022-08-03T14:46:22.506Z,14
2022-08-03T14:47:23.719Z,14
2022-08-03T14:50:41.868Z,13
2022-08-03T14:51:54.413Z,12
2022-08-03T14:52:56.246Z,12
2022-08-03T14:53:58.582Z,12
2022-08-03T14:55:00.684Z,12
2022-08-03T14:56:10.810Z,12
2022-08-03T14:57:13.473Z,13
2022-08-03T14:58:21.941Z,13
2022-08-03T14:59:25.105Z,13
2022-08-03T15:00:28.355Z,13
2022-08-03T15:02:08.807Z,13
2022-08-03T15:03:26.171Z,13
2022-08-03T15:04:27.158Z,13
2022-08-03T15:05:29.013Z,13
2022-08-03T15:06:30.511Z,12
2022-08-03T15:07:31.517Z,13
2022-08-03T15:08:32.525Z,12
2022-08-03T15:09:34.322Z,13
2022-08-03T15:10:45.529Z,13
2022-08-03T15:11:59.180Z,13
2022-08-03T15:13:04.020Z,14
2022-08-03T15:14:34.887Z,14
2022-08-03T15:15:39.669Z,14
2022-08-03T15:16:46.532Z,14
2022-08-03T15:18:01.003Z,13
2022-08-03T15:20:00.018Z,14
2022-08-03T15:21:47.906Z,13
2022-08-03T15:22:56.953Z,12
2022-08-03T15:23:58.617Z,12
2022-08-03T15:24:59.870Z,11
2022-08-03T15:26:37.860Z,12
2022-08-03T15:28:04.958Z,13
2022-08-03T15:29:06.927Z,14
2022-08-03T15:31:05.219Z,14
2022-08-03T15:32:10.119Z,14
2022-08-03T15:33:12.033Z,13
2022-08-03T15:34:15.670Z,14
2022-08-03T15:35:16.665Z,13
2022-08-03T15:36:18.747Z,13
2022-08-03T15:37:25.167Z,13
2022-08-03T15:38:33.655Z,13
2022-08-03T15:40:00.896Z,13
2022-08-03T15:41:03.447Z,13
2022-08-03T15:42:09.263Z,13
2022-08-03T15:43:13.611Z,12
2022-08-03T15:44:14.851Z,11
2022-08-03T15:45:17.967Z,10
2022-08-03T15:46:30.345Z,10
2022-08-03T15:47:31.719Z,11
2022-08-03T15:48:33.250Z,11
2022-08-03T15:49:35.542Z,11
2022-08-03T15:50:37.104Z,10
2022-08-03T15:51:38.738Z,10
2022-08-03T15:52:41.113Z,10
2022-08-03T15:53:45.242Z,10
2022-08-03T15:54:46.517Z,10